createdAt,value
2019-02-08T00:00:11.456Z,100193.02
2019-02-08T00:02:37.718Z,100190.09
2019-02-08T00:05:05.443Z,100196.09
2019-02-08T00:07:32.018Z,100186.37
2019-02-08T00:09:58.174Z,100192.21
2019-02-08T00:12:24.454Z,100195.23
2019-02-08T00:14:50.775Z,100183.84
2019-02-08T00:17:17.043Z,100186.84
2019-02-08T00:19:43.218Z,100187.45
2019-02-08T00:22:10.220Z,100182.95
2019-02-08T00:24:36.411Z,100182.95
2019-02-08T00:27:03.579Z,100181.16
2019-02-08T00:29:29.790Z,100178.38
2019-02-08T00:31:56.069Z,100182.09
2019-02-08T00:34:22.221Z,100168.45
2019-02-08T00:36:48.429Z,100175.15
2019-02-08T00:39:14.695Z,100170.72
2019-02-08T00:41:41.302Z,100173.85
2019-02-08T00:44:08.794Z,100177.36
2019-02-08T00:46:34.947Z,100176.34
2019-02-08T00:49:01.211Z,100186.98
2019-02-08T00:51:27.511Z,100177.91
2019-02-08T00:53:53.789Z,100180.53
2019-02-08T00:56:20.057Z,100173.83
2019-02-08T00:58:46.268Z,100175.99
2019-02-08T01:01:12.427Z,100170.19
2019-02-08T01:03:38.698Z,100165.87
2019-02-08T01:06:05.504Z,100166.27
2019-02-08T01:08:31.658Z,100170.94
2019-02-08T01:10:57.918Z,100167.06
2019-02-08T01:13:24.219Z,100171.73
2019-02-08T01:15:50.479Z,100160.52
2019-02-08T01:18:16.653Z,100159.11
2019-02-08T01:20:42.948Z,100160.50
2019-02-08T01:23:09.122Z,100158.25
2019-02-08T01:25:35.466Z,100156.04
2019-02-08T01:28:01.668Z,100161.04
2019-02-08T01:30:30.668Z,100159.70
2019-02-08T01:32:56.926Z,100164.02
2019-02-08T01:35:23.515Z,100155.89
2019-02-08T01:37:49.888Z,100159.86
2019-02-08T01:40:22.948Z,100163.67
2019-02-08T01:42:49.150Z,100157.93
2019-02-08T01:45:21.314Z,100158.58
2019-02-08T01:47:47.478Z,100158.58
2019-02-08T01:50:16.792Z,100154.05
2019-02-08T01:52:42.940Z,100157.95
2019-02-08T01:55:09.403Z,100157.83
2019-02-08T01:57:37.852Z,100158.36
2019-02-08T02:00:28.567Z,100155.10
2019-02-08T02:02:55.316Z,100155.08
2019-02-08T02:05:22.186Z,100147.92
2019-02-08T02:07:48.450Z,100148.05
2019-02-08T02:10:34.120Z,100143.59
2019-02-08T02:13:00.602Z,100142.48
2019-02-08T02:15:27.165Z,100144.80
2019-02-08T02:17:53.378Z,100148.87
2019-02-08T02:20:28.169Z,100142.19
2019-02-08T02:22:54.322Z,100147.70
2019-02-08T02:25:21.038Z,100138.57
2019-02-08T02:27:47.322Z,100142.11
2019-02-08T02:30:23.094Z,100139.83
2019-02-08T02:32:49.353Z,100139.44
2019-02-08T02:35:15.625Z,100144.98
2019-02-08T02:37:41.908Z,100139.22
2019-02-08T02:40:16.463Z,100142.22
2019-02-08T02:42:42.632Z,100129.06
2019-02-08T02:45:50.439Z,100129.13
2019-02-08T02:48:16.613Z,100136.73
2019-02-08T02:50:42.790Z,100134.36
2019-02-08T02:53:09.501Z,100133.28
2019-02-08T02:55:35.755Z,100135.02
2019-02-08T02:58:02.232Z,100136.80
2019-02-08T03:00:34.954Z,100139.34
2019-02-08T03:03:01.239Z,100137.59
2019-02-08T03:05:27.500Z,100132.73
2019-02-08T03:07:53.700Z,100135.65
2019-02-08T03:10:21.273Z,100128.63
2019-02-08T03:12:47.520Z,100132.09
2019-02-08T03:15:16.948Z,100133.27
2019-02-08T03:17:43.205Z,100130.02
2019-02-08T03:20:12.510Z,100128.16
2019-02-08T03:22:38.683Z,100130.95
2019-02-08T03:25:08.258Z,100134.91
2019-02-08T03:27:34.432Z,100140.15
2019-02-08T03:30:00.771Z,100139.28
2019-02-08T03:32:27.041Z,100138.95
2019-02-08T03:34:53.210Z,100142.80
2019-02-08T03:37:19.425Z,100140.06
2019-02-08T03:39:45.692Z,100138.00
2019-02-08T03:42:11.857Z,100138.16
2019-02-08T03:44:38.186Z,100135.09
2019-02-08T03:47:04.531Z,100134.16
2019-02-08T03:49:30.694Z,100139.95
2019-02-08T03:51:56.892Z,100141.03
2019-02-08T03:54:23.050Z,100142.70
2019-02-08T03:56:49.325Z,100135.69
2019-02-08T03:59:15.521Z,100133.48
2019-02-08T04:01:41.790Z,100133.57
2019-02-08T04:04:13.229Z,100133.95
2019-02-08T04:06:39.736Z,100142.27
2019-02-08T04:09:07.319Z,100134.26
2019-02-08T04:11:33.478Z,100142.16
2019-02-08T04:13:59.682Z,100137.34
2019-02-08T04:16:25.951Z,100139.20
2019-02-08T04:18:52.119Z,100140.50
2019-02-08T04:21:18.314Z,100137.23
2019-02-08T04:23:44.485Z,100145.18
2019-02-08T04:26:10.738Z,100133.20
2019-02-08T04:28:37.045Z,100134.34
2019-02-08T04:31:03.359Z,100136.08
2019-02-08T04:33:29.524Z,100128.77
2019-02-08T04:35:55.717Z,100134.16
2019-02-08T04:38:21.883Z,100134.98
2019-02-08T04:40:48.169Z,100138.17
2019-02-08T04:43:14.487Z,100134.65
2019-02-08T04:45:40.654Z,100136.70
2019-02-08T04:48:06.814Z,100141.81
2019-02-08T04:50:33.116Z,100138.22
2019-02-08T04:52:59.295Z,100137.91
2019-02-08T04:55:26.056Z,100138.89
2019-02-08T04:57:52.360Z,100134.88
2019-02-08T05:00:21.727Z,100135.96
2019-02-08T05:02:47.895Z,100134.83
2019-02-08T05:05:14.082Z,100137.73
2019-02-08T05:07:40.351Z,100143.16
2019-02-08T05:10:10.225Z,100140.27
2019-02-08T05:12:36.530Z,100147.91
2019-02-08T05:15:05.689Z,100141.81
2019-02-08T05:17:31.847Z,100139.05
2019-02-08T05:19:58.144Z,100141.56
2019-02-08T05:22:24.295Z,100140.02
2019-02-08T05:24:50.460Z,100143.02
2019-02-08T05:27:16.779Z,100147.15
2019-02-08T05:29:43.063Z,100149.81
2019-02-08T05:32:09.436Z,100150.78
2019-02-08T05:34:35.629Z,100147.34
2019-02-08T05:37:01.791Z,100146.22
2019-02-08T05:39:28.054Z,100145.85
2019-02-08T05:41:54.358Z,100152.00
2019-02-08T05:44:20.622Z,100154.14
2019-02-08T05:46:46.894Z,100151.34
2019-02-08T05:49:13.088Z,100146.00
2019-02-08T05:51:39.350Z,100148.23
2019-02-08T05:54:05.832Z,100146.77
2019-02-08T05:56:32.038Z,100145.55
2019-02-08T05:58:58.319Z,100154.25
2019-02-08T06:01:24.590Z,100150.73
2019-02-08T06:03:50.879Z,100151.27
2019-02-08T06:06:17.162Z,100155.80
2019-02-08T06:08:43.633Z,100145.97
2019-02-08T06:11:09.834Z,100147.41
2019-02-08T06:13:36.228Z,100148.92
2019-02-08T06:16:03.020Z,100141.90
2019-02-08T06:18:29.215Z,100146.05
2019-02-08T06:20:55.476Z,100140.30
2019-02-08T06:23:21.658Z,100149.27
2019-02-08T06:25:48.063Z,100147.12
2019-02-08T06:28:14.338Z,100147.11
2019-02-08T06:30:40.609Z,100149.11
2019-02-08T06:33:06.836Z,100141.38
2019-02-08T06:35:33.011Z,100142.70
2019-02-08T06:37:59.320Z,100136.79
2019-02-08T06:40:28.914Z,100132.91
2019-02-08T06:42:55.179Z,100129.74
2019-02-08T06:45:24.044Z,100130.26
2019-02-08T06:47:50.446Z,100127.42
2019-02-08T06:50:19.422Z,100132.63
2019-02-08T06:52:45.574Z,100139.98
2019-02-08T06:55:12.264Z,100142.66
2019-02-08T06:57:40.331Z,100139.92
2019-02-08T07:00:14.117Z,100142.27
2019-02-08T07:02:42.218Z,100144.37
2019-02-08T07:05:19.508Z,100144.39
2019-02-08T07:07:47.607Z,100147.25
2019-02-08T07:10:18.585Z,100143.45
2019-02-08T07:12:49.462Z,100147.47
2019-02-08T07:15:20.579Z,100147.08
2019-02-08T07:17:51.705Z,100153.30
2019-02-08T07:20:19.908Z,100145.66
2019-02-08T07:22:53.565Z,100157.09
2019-02-08T07:25:36.662Z,100151.67
2019-02-08T07:28:19.738Z,100157.20
2019-02-08T07:30:50.795Z,100159.73
2019-02-08T07:33:33.700Z,100165.14
2019-02-08T07:36:05.058Z,100161.45
2019-02-08T07:38:36.466Z,100165.05
2019-02-08T07:41:06.266Z,100160.42
2019-02-08T07:43:46.990Z,100172.58
2019-02-08T07:46:21.896Z,100167.20
2019-02-08T07:48:50.474Z,100157.78
2019-02-08T07:51:24.796Z,100159.20
2019-02-08T07:54:09.219Z,100165.95
2019-02-08T07:56:39.881Z,100175.44
2019-02-08T07:59:10.454Z,100166.06
2019-02-08T08:01:39.034Z,100162.63
2019-02-08T08:04:09.224Z,100165.59
2019-02-08T08:06:43.856Z,100157.33
2019-02-08T08:09:14.972Z,100154.25
2019-02-08T08:11:46.140Z,100160.61
2019-02-08T08:14:21.490Z,100151.17
2019-02-08T08:17:06.383Z,100156.19
2019-02-08T08:19:44.535Z,100152.81
2019-02-08T08:22:28.461Z,100164.58
2019-02-08T08:25:02.264Z,100155.31
2019-02-08T08:27:34.144Z,100149.95
2019-02-08T08:30:05.848Z,100148.05
2019-02-08T08:32:36.230Z,100147.74
2019-02-08T08:35:24.168Z,100153.89
2019-02-08T08:37:53.961Z,100153.70
2019-02-08T08:40:44.931Z,100152.72
2019-02-08T08:43:33.018Z,100151.05
2019-02-08T08:46:12.098Z,100171.28
2019-02-08T08:48:58.571Z,100167.80
2019-02-08T08:51:40.775Z,100157.17
2019-02-08T08:54:26.231Z,100156.02
2019-02-08T08:57:22.279Z,100149.02
2019-02-08T09:00:08.795Z,100149.33
2019-02-08T09:02:49.280Z,100148.81
2019-02-08T09:05:34.524Z,100158.58
2019-02-08T09:08:33.425Z,100156.09
2019-02-08T09:11:30.522Z,100153.03
2019-02-08T09:14:18.520Z,100147.03
2019-02-08T09:17:08.043Z,100141.87
2019-02-08T09:19:44.036Z,100139.95
2019-02-08T09:22:35.062Z,100141.28
2019-02-08T09:25:29.313Z,100145.45
2019-02-08T09:28:08.112Z,100140.06
2019-02-08T09:31:09.793Z,100137.97
2019-02-08T09:34:00.835Z,100145.41
2019-02-08T09:36:47.814Z,100143.00
2019-02-08T09:39:26.213Z,100134.56
2019-02-08T09:42:18.614Z,100133.47
2019-02-08T09:44:57.573Z,100143.21
2019-02-08T09:47:45.503Z,100149.02
2019-02-08T09:50:44.262Z,100143.84
2019-02-08T09:53:30.540Z,100148.33
2019-02-08T09:56:27.668Z,100145.98
2019-02-08T09:59:13.972Z,100145.70
2019-02-08T10:02:17.468Z,100150.88
2019-02-08T10:04:50.033Z,100162.13
2019-02-08T10:07:19.787Z,100160.55
2019-02-08T10:10:10.762Z,100157.73
2019-02-08T10:12:55.622Z,100156.92
2019-02-08T10:15:59.035Z,100156.94
2019-02-08T10:18:37.956Z,100160.70
2019-02-08T10:21:27.813Z,100150.23
2019-02-08T10:24:15.918Z,100157.31
2019-02-08T10:27:00.638Z,100149.06
2019-02-08T10:30:02.450Z,100150.45
2019-02-08T10:32:52.075Z,100145.59
2019-02-08T10:35:36.615Z,100145.02
2019-02-08T10:38:29.012Z,100151.44
2019-02-08T10:41:07.750Z,100145.44
2019-02-08T10:43:54.237Z,100142.94
2019-02-08T10:46:39.232Z,100142.91
2019-02-08T10:49:17.962Z,100138.80
2019-02-08T10:51:59.771Z,100140.91
2019-02-08T10:54:44.871Z,100128.52
2019-02-08T10:57:27.330Z,100136.41
2019-02-08T11:00:00.044Z,100134.97
2019-02-08T11:03:03.639Z,100123.35
2019-02-08T11:05:39.349Z,100130.30
2019-02-08T11:08:32.209Z,100128.59
2019-02-08T11:11:23.011Z,100122.31
2019-02-08T11:14:12.903Z,100116.89
2019-02-08T11:17:19.222Z,100122.57
2019-02-08T11:19:50.891Z,100119.84
2019-02-08T11:22:17.152Z,100117.03
2019-02-08T11:24:43.498Z,100115.66
2019-02-08T11:27:10.048Z,100110.33
2019-02-08T11:29:38.366Z,100107.05
2019-02-08T11:32:08.258Z,100105.06
2019-02-08T11:34:34.425Z,100104.52
2019-02-08T11:37:07.211Z,100104.63
2019-02-08T11:39:28.948Z,100102.95
2019-02-08T11:41:55.154Z,100111.25
2019-02-08T11:44:21.642Z,100096.27
2019-02-08T11:46:47.940Z,100099.44
2019-02-08T11:49:14.430Z,100090.02
2019-02-08T11:51:41.120Z,100094.66
2019-02-08T11:54:07.416Z,100095.07
2019-02-08T11:56:34.023Z,100097.75
2019-02-08T11:59:00.494Z,100101.05
2019-02-08T12:01:28.601Z,100093.75
2019-02-08T12:03:54.776Z,100089.13
2019-02-08T12:06:21.037Z,100085.59
2019-02-08T12:08:47.351Z,100079.12
2019-02-08T12:11:13.492Z,100089.59
2019-02-08T12:13:39.670Z,100078.98
2019-02-08T12:16:05.976Z,100076.89
2019-02-08T12:18:32.226Z,100084.28
2019-02-08T12:20:58.510Z,100076.33
2019-02-08T12:23:24.806Z,100070.55
2019-02-08T12:25:51.073Z,100068.75
2019-02-08T12:28:17.534Z,100064.36
2019-02-08T12:30:44.722Z,100061.25
2019-02-08T12:33:11.375Z,100057.51
2019-02-08T12:35:37.640Z,100060.08
2019-02-08T12:38:04.051Z,100058.18
2019-02-08T12:40:30.366Z,100069.52
2019-02-08T12:42:56.652Z,100062.73
2019-02-08T12:45:22.854Z,100064.16
2019-02-08T12:47:49.008Z,100073.39
2019-02-08T12:50:19.892Z,100078.06
2019-02-08T12:52:46.098Z,100075.70
2019-02-08T12:55:14.669Z,100072.19
2019-02-08T12:57:40.830Z,100070.75
2019-02-08T13:00:16.924Z,100071.32
2019-02-08T13:02:43.190Z,100077.04
2019-02-08T13:05:11.150Z,100082.85
2019-02-08T13:07:37.359Z,100084.98
2019-02-08T13:10:09.960Z,100092.22
2019-02-08T13:12:36.234Z,100084.52
2019-02-08T13:15:05.916Z,100081.97
2019-02-08T13:17:32.089Z,100077.44
2019-02-08T13:19:58.350Z,100078.92
2019-02-08T13:22:24.557Z,100088.29
2019-02-08T13:24:50.730Z,100085.45
2019-02-08T13:27:16.998Z,100091.73
2019-02-08T13:29:43.204Z,100101.00
2019-02-08T13:32:09.390Z,100100.00
2019-02-08T13:34:35.540Z,100100.97
2019-02-08T13:37:02.211Z,100101.63
2019-02-08T13:39:28.473Z,100093.73
2019-02-08T13:41:54.699Z,100092.47
2019-02-08T13:44:20.991Z,100093.48
2019-02-08T13:46:47.263Z,100095.67
2019-02-08T13:49:13.404Z,100088.03
2019-02-08T13:51:39.597Z,100098.20
2019-02-08T13:54:05.774Z,100106.20
2019-02-08T13:56:32.063Z,100102.05
2019-02-08T13:58:58.352Z,100102.08
2019-02-08T14:01:24.611Z,100098.17
2019-02-08T14:03:50.782Z,100096.95
2019-02-08T14:06:16.987Z,100098.01
2019-02-08T14:08:43.161Z,100093.31
2019-02-08T14:11:09.314Z,100091.77
2019-02-08T14:13:40.497Z,100096.20
2019-02-08T14:16:03.946Z,100097.39
2019-02-08T14:18:30.099Z,100096.00
2019-02-08T14:20:56.290Z,100096.69
2019-02-08T14:23:24.275Z,100098.58
2019-02-08T14:25:50.596Z,100097.91
2019-02-08T14:28:16.746Z,100096.06
2019-02-08T14:30:43.321Z,100096.97
2019-02-08T14:33:12.230Z,100098.52
2019-02-08T14:35:38.626Z,100101.95
2019-02-08T14:38:08.495Z,100100.72
2019-02-08T14:40:35.125Z,100102.98
2019-02-08T14:43:01.331Z,100107.58
2019-02-08T14:45:27.800Z,100114.23
2019-02-08T14:47:54.103Z,100116.55
2019-02-08T14:50:23.994Z,100110.40
2019-02-08T14:52:50.562Z,100115.14
2019-02-08T14:55:16.747Z,100103.67
2019-02-08T14:57:44.132Z,100101.95
2019-02-08T15:00:19.453Z,100104.09
2019-02-08T15:02:45.702Z,100107.55
2019-02-08T15:05:14.216Z,100107.31
2019-02-08T15:07:40.480Z,100108.58
2019-02-08T15:10:25.624Z,100107.50
2019-02-08T15:12:51.901Z,100109.30
2019-02-08T15:15:18.458Z,100112.09
2019-02-08T15:17:44.640Z,100112.92
2019-02-08T15:20:14.414Z,100113.80
2019-02-08T15:22:40.568Z,100116.30
2019-02-08T15:25:08.281Z,100117.69
2019-02-08T15:27:34.747Z,100121.19
2019-02-08T15:30:00.908Z,100127.54
2019-02-08T15:32:27.107Z,100128.38
2019-02-08T15:34:53.282Z,100125.74
2019-02-08T15:37:19.640Z,100122.48
2019-02-08T15:39:45.837Z,100123.59
2019-02-08T15:42:12.000Z,100118.31
2019-02-08T15:44:38.312Z,100126.97
2019-02-08T15:47:04.722Z,100123.00
2019-02-08T15:49:30.881Z,100119.96
2019-02-08T15:51:57.151Z,100119.16
2019-02-08T15:54:23.446Z,100118.68
2019-02-08T15:56:49.605Z,100122.73
2019-02-08T15:59:15.866Z,100127.68
2019-02-08T16:01:42.301Z,100125.84
2019-02-08T16:04:08.551Z,100132.19
2019-02-08T16:06:34.827Z,100134.05
2019-02-08T16:09:01.029Z,100134.72
2019-02-08T16:11:27.180Z,100135.95
2019-02-08T16:13:53.439Z,100137.28
2019-02-08T16:16:19.645Z,100146.11
2019-02-08T16:18:45.911Z,100145.81
2019-02-08T16:21:12.370Z,100137.91
2019-02-08T16:23:38.560Z,100155.53
2019-02-08T16:26:04.825Z,100156.47
2019-02-08T16:28:31.090Z,100162.22
2019-02-08T16:30:57.383Z,100164.09
2019-02-08T16:33:23.669Z,100162.61
2019-02-08T16:35:57.805Z,100156.05
2019-02-08T16:38:23.984Z,100159.50
2019-02-08T16:40:50.263Z,100156.80
2019-02-08T16:43:16.424Z,100157.77
2019-02-08T16:45:42.692Z,100166.82
2019-02-08T16:48:11.567Z,100162.16
2019-02-08T16:50:38.141Z,100168.30
2019-02-08T16:53:06.299Z,100178.12
2019-02-08T16:55:34.357Z,100174.42
2019-02-08T16:58:00.522Z,100177.78
2019-02-08T17:00:29.816Z,100175.96
2019-02-08T17:02:58.685Z,100184.92
2019-02-08T17:05:26.353Z,100185.47
2019-02-08T17:07:52.548Z,100187.05
2019-02-08T17:10:18.819Z,100184.80
2019-02-08T17:12:45.072Z,100190.81
2019-02-08T17:15:14.885Z,100187.68
2019-02-08T17:17:41.191Z,100187.81
2019-02-08T17:20:16.844Z,100189.97
2019-02-08T17:22:43.024Z,100191.65
2019-02-08T17:25:09.393Z,100195.86
2019-02-08T17:27:35.649Z,100198.34
2019-02-08T17:30:03.633Z,100195.94
2019-02-08T17:32:29.805Z,100195.92
2019-02-08T17:34:55.973Z,100196.95
2019-02-08T17:37:22.277Z,100197.18
2019-02-08T17:39:48.541Z,100200.05
2019-02-08T17:42:14.700Z,100200.87
2019-02-08T17:44:40.999Z,100197.31
2019-02-08T17:47:07.342Z,100200.16
2019-02-08T17:49:33.478Z,100203.04
2019-02-08T17:51:59.779Z,100198.66
2019-02-08T17:54:26.052Z,100197.60
2019-02-08T17:56:52.213Z,100205.53
2019-02-08T17:59:18.906Z,100205.94
2019-02-08T18:01:45.171Z,100200.27
2019-02-08T18:04:11.320Z,100201.72
2019-02-08T18:06:37.648Z,100203.24
2019-02-08T18:09:06.012Z,100202.69
2019-02-08T18:11:32.277Z,100206.71
2019-02-08T18:13:58.469Z,100207.08
2019-02-08T18:16:24.633Z,100200.84
2019-02-08T18:18:50.802Z,100201.33
2019-02-08T18:21:16.993Z,100206.50
2019-02-08T18:23:43.265Z,100204.09
2019-02-08T18:26:09.525Z,100204.26
2019-02-08T18:28:35.831Z,100203.57
2019-02-08T18:31:02.285Z,100207.15
2019-02-08T18:33:28.446Z,100204.43
2019-02-08T18:35:54.644Z,100209.67
2019-02-08T18:38:20.802Z,100212.22
2019-02-08T18:40:47.069Z,100204.89
2019-02-08T18:43:13.427Z,100203.52
2019-02-08T18:45:39.592Z,100199.21
2019-02-08T18:48:06.310Z,100203.09
2019-02-08T18:50:38.841Z,100209.67
2019-02-08T18:53:05.930Z,100209.72
2019-02-08T18:55:32.180Z,100205.28
2019-02-08T18:57:58.383Z,100210.02
2019-02-08T19:00:27.777Z,100216.61
2019-02-08T19:02:53.957Z,100221.03
2019-02-08T19:05:20.168Z,100218.89
2019-02-08T19:07:46.458Z,100214.53
2019-02-08T19:10:15.358Z,100218.77
2019-02-08T19:12:41.568Z,100217.95
2019-02-08T19:15:11.058Z,100220.81
2019-02-08T19:17:37.222Z,100221.26
2019-02-08T19:20:06.729Z,100221.58
2019-02-08T19:22:32.893Z,100212.11
2019-02-08T19:24:59.061Z,100213.46
2019-02-08T19:27:25.256Z,100223.56
2019-02-08T19:29:51.414Z,100224.23
2019-02-08T19:32:17.568Z,100226.25
2019-02-08T19:34:43.772Z,100224.91
2019-02-08T19:37:10.040Z,100228.61
2019-02-08T19:39:36.299Z,100226.92
2019-02-08T19:42:02.924Z,100230.61
2019-02-08T19:44:29.099Z,100228.70
2019-02-08T19:46:55.387Z,100234.09
2019-02-08T19:49:24.471Z,100235.80
2019-02-08T19:51:50.765Z,100231.89
2019-02-08T19:54:17.034Z,100232.88
2019-02-08T19:56:43.347Z,100232.23
2019-02-08T19:59:09.617Z,100234.11
2019-02-08T20:01:35.890Z,100238.62
2019-02-08T20:04:03.884Z,100234.61
2019-02-08T20:06:30.165Z,100235.77
2019-02-08T20:08:56.433Z,100236.13
2019-02-08T20:11:22.770Z,100236.08
2019-02-08T20:13:49.045Z,100243.02
2019-02-08T20:16:15.208Z,100240.64
2019-02-08T20:18:41.405Z,100234.64
2019-02-08T20:21:07.712Z,100234.20
2019-02-08T20:23:33.855Z,100244.30
2019-02-08T20:26:02.002Z,100238.77
2019-02-08T20:28:28.631Z,100231.03
2019-02-08T20:30:54.896Z,100228.36
2019-02-08T20:33:22.891Z,100231.37
2019-02-08T20:35:51.481Z,100232.01
2019-02-08T20:38:17.654Z,100227.64
2019-02-08T20:40:48.600Z,100229.48
2019-02-08T20:43:14.869Z,100227.96
2019-02-08T20:45:41.512Z,100229.17
2019-02-08T20:48:16.620Z,100229.52
2019-02-08T20:50:43.036Z,100230.37
2019-02-08T20:53:09.223Z,100236.23
2019-02-08T20:55:36.189Z,100228.69
2019-02-08T20:58:05.115Z,100233.73
2019-02-08T21:00:35.648Z,100227.02
2019-02-08T21:03:05.875Z,100238.42
2019-02-08T21:05:32.402Z,100229.37
2019-02-08T21:07:59.359Z,100234.39
2019-02-08T21:10:26.454Z,100230.19
2019-02-08T21:12:55.103Z,100234.07
2019-02-08T21:15:22.507Z,100231.39
2019-02-08T21:17:48.697Z,100226.33
2019-02-08T21:20:16.371Z,100225.16
2019-02-08T21:22:42.536Z,100225.00
2019-02-08T21:25:18.336Z,100231.98
2019-02-08T21:27:44.612Z,100230.02
2019-02-08T21:30:14.081Z,100233.73
2019-02-08T21:32:40.372Z,100226.34
2019-02-08T21:35:09.237Z,100225.98
2019-02-08T21:37:35.866Z,100222.95
2019-02-08T21:40:04.468Z,100228.70
2019-02-08T21:42:30.726Z,100230.05
2019-02-08T21:44:56.888Z,100227.17
2019-02-08T21:47:23.196Z,100226.66
2019-02-08T21:49:49.357Z,100225.66
2019-02-08T21:52:15.568Z,100231.70
2019-02-08T21:54:41.869Z,100226.33
2019-02-08T21:57:08.140Z,100218.25
2019-02-08T21:59:34.299Z,100217.57
2019-02-08T22:02:00.617Z,100221.75
2019-02-08T22:04:26.784Z,100219.70
2019-02-08T22:06:52.953Z,100224.98
2019-02-08T22:09:19.262Z,100232.89
2019-02-08T22:11:46.476Z,100227.50
2019-02-08T22:14:12.632Z,100227.85
2019-02-08T22:16:38.832Z,100222.78
2019-02-08T22:19:05.203Z,100226.34
2019-02-08T22:21:31.711Z,100227.00
2019-02-08T22:23:57.926Z,100228.36
2019-02-08T22:26:24.222Z,100221.64
2019-02-08T22:28:50.438Z,100224.50
2019-02-08T22:31:16.606Z,100224.99
2019-02-08T22:33:42.859Z,100234.40
2019-02-08T22:36:09.016Z,100231.53
2019-02-08T22:38:35.198Z,100232.88
2019-02-08T22:41:01.463Z,100231.88
2019-02-08T22:43:27.644Z,100236.26
2019-02-08T22:45:53.952Z,100238.42
2019-02-08T22:48:20.118Z,100238.77
2019-02-08T22:50:46.882Z,100236.09
2019-02-08T22:53:13.227Z,100234.41
2019-02-08T22:55:39.395Z,100232.70
2019-02-08T22:58:07.361Z,100232.39
2019-02-08T23:00:40.310Z,100229.35
2019-02-08T23:03:08.275Z,100236.87
2019-02-08T23:05:34.433Z,100232.70
2019-02-08T23:08:00.628Z,100226.79
2019-02-08T23:10:27.094Z,100226.30
2019-02-08T23:12:53.262Z,100233.67
2019-02-08T23:15:19.457Z,100235.33
2019-02-08T23:17:45.624Z,100237.63
2019-02-08T23:20:11.992Z,100232.17
2019-02-08T23:22:38.192Z,100229.41
2019-02-08T23:25:05.259Z,100231.71
2019-02-08T23:27:31.528Z,100233.59
2019-02-08T23:29:57.829Z,100230.25
2019-02-08T23:32:23.988Z,100227.66
2019-02-08T23:34:50.266Z,100226.97
2019-02-08T23:37:16.571Z,100225.67
2019-02-08T23:39:42.734Z,100225.31
2019-02-08T23:42:09.007Z,100220.06
2019-02-08T23:44:35.317Z,100222.88
2019-02-08T23:47:01.493Z,100222.98
2019-02-08T23:49:27.765Z,100217.94
2019-02-08T23:51:54.053Z,100221.80
2019-02-08T23:54:20.431Z,100223.83
2019-02-08T23:56:46.703Z,100225.90
2019-02-08T23:59:12.998Z,100222.86
